This is the latest recevied weather packets stored in our database for station/object AD9CI-15. If no packets are shown the sender has not sent any weather packets the latest 10 day(s).
| Time | Temp. | Humidity | Pressure | Rain* | Wind** | Luminosity | Snow |
|---|---|---|---|---|---|---|---|
| 1777872742 | 13.89° C | 55% | 1003.4 hPa | - | - | - | - |
| 1777871063 | 14.44° C | 54% | 1003.7 hPa | - | - | - | - |
| 1777869144 | 14.44° C | 53% | 1003.6 hPa | - | - | - | - |
| 1777867463 | 15° C | 52% | 1003.8 hPa | - | - | - | - |
| 1777863862 | 15.56° C | 51% | 1004 hPa | - | - | - | - |
| 1777861943 | 15.56° C | 50% | 1004 hPa | - | - | - | - |
| 1777860262 | 16.11° C | 49% | 1003.9 hPa | - | - | - | - |
| 1777858343 | 16.67° C | 48% | 1004 hPa | - | - | - | - |
| 1777856662 | 17.78° C | 46% | 1003.8 hPa | - | - | - | - |
| 1777854744 | 18.89° C | 45% | 1003.7 hPa | - | - | - | - |
| 1777853062 | 18.89° C | 43% | 1003.5 hPa | - | - | - | - |
| 1777849463 | 20° C | 42% | 1003.7 hPa | - | - | - | - |
| 1777847543 | 20° C | 41% | 1003.9 hPa | - | - | - | - |
| 1777845862 | 20° C | 41% | 1003.9 hPa | - | - | - | - |
| 1777843944 | 19.44° C | 41% | 1004.4 hPa | - | - | - | - |
| 1777842263 | 18.89° C | 45% | 1004.7 hPa | - | - | - | - |
| 1777840344 | 18.89° C | 46% | 1005.6 hPa | - | - | - | - |
| 1777838662 | 18.89° C | 42% | 1005.8 hPa | - | - | - | - |
| 1777836742 | 18.89° C | 40% | 1005.8 hPa | - | - | - | - |
| 1777835063 | 18.33° C | 42% | 1006.2 hPa | - | - | - | - |
| 1777831462 | 16.11° C | 52% | 1007.3 hPa | - | - | - | - |
| 1777829544 | 15° C | 53% | 1008 hPa | - | - | - | - |
| 1777827862 | 13.33° C | 55% | 1008.6 hPa | - | - | - | - |
| 1777825943 | 12.22° C | 61% | 1009.3 hPa | - | - | - | - |
| 1777824262 | 13.33° C | 57% | 1009.4 hPa | - | - | - | - |
* Rain since midnight (hover to see other rain measurements)
** Current wind speed in m/s (hover to see current wind gust speed)